Airfield :
LOGIN :

Register | Disclaimer

   EN    FR    IT 

 










Legend :    VFR   Marginal VFR   IFR   Intensive IFR   Very Intensive IFR
Visi :
Ceiling :
>= 8 km
>= 3000ft
5 to 8 km
1000 to 3000 ft
1500m to 5 km
500 to 1000 ft
800 to 1500m
200 to 500 ft
< 800m
< 200 ft
Symbols :   Thunderstorms  Fog  Heavy snow  Heavy precipitations  Wind > 20 kt
SIGMETs :     Misc.  Thunderstorms  Icing  Turbulence  Mountain Waves  Volcanic Ashes






- Airport Elevation : 126 ft
- IATA code : WIC


EGPC - Wick

CURRENT METAR :
  • 102050Z AUTO 24017KT 9999 NCD 05/01 Q0980

EXPIRED METARs :
  • 102020Z 24019KT 9999 VCSH FEW015 05/01 Q0979
  • 101950Z 26019G30KT 9999 VCSH FEW015 SCT035 05/01 Q0979
  • 101920Z 24014KT 9999 FEW018 05/02 Q0978
  • 101850Z 26016KT 9999 FEW018 06/02 Q0978
  • 101820Z 25018KT 9999 FEW018 05/01 Q0977

TAF TAF EGPC
Valid from the 10 at 21:00 until the 11 at 06:00 UTC


101958Z 1021/1106 24020KT 9999 SCT020
PROB30
TEMPO 1021/1106 26028G40KT 4000 SHRAGS BKN010CB
ATIS : +44 1955 607 596



MET'MAP, your aeronautical weather chart ! - Copyright ORBIFLY December 2007 - Disclaimer

ORBIFLY MET'MAP TEAM :

Programming & Development : Alexandra Zaïnal
Concept & original design : Baudouin d'Aumeries
Assistance for programming : Marc-Olivier Méhu
Technical & hardware support : Manuel Goepfert

Contact : metmap@orbifly.com




SOURCES & CREDITS :

   NOAA